^^
Datos históricos de la estación: Murcia-Puente Tocinos
Diario Informe para Marzo 23, 2021 Unidades:  Métrico    Ingés   Ambas
Diario Semanal Mensual Anual
  Máxima: Mínima: Promedio:
Temperatura: 30.9 °C 23.9 °C 27 °C
Punto de rocio: 21.6 °C 13.2 °C 17.8 °C
Humedad: 78% 36% 58%
Velocidad viento: 22.5km/h 2.3km/h 9.7km/h
Racha viento: 40.7km/h - -
Viento- - SE
Presión: 1017.1 hPa 1011.8 hPa -
Precipitación: 0.0 mm    
 
 
Tabla de datos para Marzo 23, 2021
Hora Temperatura Punto de rocio Presión Viento Velocidad viento Racha viento Humedad Intensidad lluvia(por hora) Nubes
00:04 26.4 °C 20.3 °C 1016.3 hPa ENE 5.8 km/h 9.3 km/h 69% 0.0 mm
00:09 26.3 °C 20.2 °C 1016.2 hPa NE 5.4 km/h 9.3 km/h 69% 0.0 mm
00:14 26.3 °C 20.2 °C 1016.2 hPa NE 5 km/h 8.4 km/h 69% 0.0 mm
00:19 26.3 °C 20.3 °C 1016.2 hPa NE 5 km/h 8.4 km/h 69.4% 0.0 mm
00:24 26.2 °C 20.1 °C 1016.0 hPa NE 5 km/h 7.4 km/h 69.3% 0.0 mm
00:29 26.2 °C 20.3 °C 1016.0 hPa NE 4.8 km/h 5.8 km/h 70% 0.0 mm
00:34 26.1 °C 20.2 °C 1016.3 hPa NE 4.7 km/h 5.8 km/h 70% 0.0 mm
00:39 26.1 °C 20.2 °C 1016.3 hPa NE 3.9 km/h 4.7 km/h 70% 0.0 mm
00:44 26 °C 20.2 °C 1016.3 hPa NNO 3.2 km/h 5.8 km/h 70% 0.0 mm
00:49 25.9 °C 20.2 °C 1016.3 hPa NO 3.2 km/h 7.6 km/h 71% 0.0 mm
00:54 25.8 °C 20.4 °C 1016.3 hPa ONO 3.2 km/h 8.4 km/h 71.8% 0.0 mm
00:59 25.8 °C 20.4 °C 1016.3 hPa ONO 4.1 km/h 8.4 km/h 72% 0.0 mm
01:04 25.7 °C 20.5 °C 1016.4 hPa Oeste 5 km/h 7.4 km/h 73% 0.0 mm
01:09 25.7 °C 20.4 °C 1016.4 hPa OSO 4.8 km/h 6.4 km/h 73% 0.0 mm
01:14 25.6 °C 20.4 °C 1016.4 hPa OSO 4.7 km/h 7.6 km/h 73% 0.0 mm
01:19 25.5 °C 20.5 °C 1016.5 hPa OSO 4.7 km/h 7.4 km/h 74% 0.0 mm
01:24 25.5 °C 20.5 °C 1016.5 hPa Oeste 4.7 km/h 7.6 km/h 74% 0.0 mm
01:29 25.5 °C 20.5 °C 1016.5 hPa Oeste 4.7 km/h 7.4 km/h 74% 0.0 mm
01:34 25.5 °C 20.4 °C 1016.5 hPa Oeste 4.7 km/h 3.9 km/h 73.6% 0.0 mm
01:39 25.5 °C 20.3 °C 1016.2 hPa Oeste 3.4 km/h 7.4 km/h 73% 0.0 mm
01:44 25.6 °C 20.4 °C 1016.2 hPa OSO 2.3 km/h 7.4 km/h 73% 0.0 mm
01:49 25.6 °C 20.4 °C 1016.6 hPa SO 3.4 km/h 9.5 km/h 73% 0.0 mm
01:54 25.7 °C 20.3 °C 1016.6 hPa SO 4.7 km/h 9.5 km/h 72.1% 0.0 mm
01:59 25.7 °C 20.3 °C 1016.6 hPa SSO 5.3 km/h 7.6 km/h 72% 0.0 mm
02:04 25.7 °C 20.2 °C 1017.0 hPa Sur 5.8 km/h 11.9 km/h 71.5% 0.0 mm
02:09 25.6 °C 19.9 °C 1017.0 hPa SSO 6.1 km/h 13.7 km/h 70.6% 0.0 mm
02:14 25.6 °C 19.4 °C 1017.0 hPa SSO 6.4 km/h 20.1 km/h 68.5% 0.0 mm
02:19 25.4 °C 18.7 °C 1017.1 hPa SO 8.8 km/h 20.4 km/h 66.6% 0.0 mm
02:24 25.3 °C 18.5 °C 1017.1 hPa SO 11.1 km/h 11.1 km/h 66% 0.0 mm
02:29 25.3 °C 18.5 °C 1017.1 hPa SSO 9 km/h 9.3 km/h 66% 0.0 mm
02:34 25.3 °C 18.5 °C 1017.1 hPa OSO 6.4 km/h 5.6 km/h 66.1% 0.0 mm
02:39 25.3 °C 18.7 °C 1016.6 hPa Oeste 4.8 km/h 5.6 km/h 66.8% 0.0 mm
02:44 25.2 °C 18.4 °C 1016.6 hPa SO 2.9 km/h 9.5 km/h 66.1% 0.0 mm
02:49 25.1 °C 18.3 °C 1016.6 hPa Sur 4 km/h 9.3 km/h 66% 0.0 mm
02:54 25.1 °C 18.3 °C 1016.6 hPa Sur 5 km/h 7.4 km/h 66% 0.0 mm
02:59 25.2 °C 18.3 °C 1016.6 hPa Este 4.4 km/h 7.6 km/h 66% 0.0 mm
03:04 25.3 °C 18.1 °C 1016.6 hPa SSE 3.9 km/h 13 km/h 64.5% 0.0 mm
03:09 25.3 °C 17.8 °C 1016.4 hPa SE 5.3 km/h 13 km/h 63.4% 0.0 mm
03:14 25.4 °C 17.9 °C 1016.4 hPa NE 6.9 km/h 12.2 km/h 63.3% 0.0 mm
03:19 25.2 °C 17.8 °C 1016.4 hPa NE 7.2 km/h 17.2 km/h 63.8% 0.0 mm
03:24 24.9 °C 17.9 °C 1015.0 hPa NNE 7.6 km/h 16.7 km/h 65.2% 0.0 mm
03:29 24.8 °C 18 °C 1015.0 hPa NNE 7.6 km/h 9.3 km/h 66% 0.0 mm
03:34 24.7 °C 18.1 °C 1015.1 hPa SE 7.6 km/h 10 km/h 66.6% 0.0 mm
03:39 24.8 °C 18.2 °C 1015.1 hPa OSO 7.6 km/h 23.3 km/h 66.5% 0.0 mm
03:44 25 °C 18.2 °C 1015.1 hPa OSO 7.6 km/h 24.1 km/h 66% 0.0 mm
03:49 25.2 °C 18.3 °C 1015.4 hPa ONO 8.5 km/h 11.1 km/h 65.8% 0.0 mm
03:54 25.2 °C 18.1 °C 1015.4 hPa NO 9.5 km/h 13.7 km/h 65% 0.0 mm
03:59 25 °C 18 °C 1015.4 hPa NNO 8.5 km/h 10.3 km/h 65% 0.0 mm
04:04 24.8 °C 17.6 °C 1015.4 hPa NO 7.6 km/h 11.1 km/h 64.5% 0.0 mm
04:09 24.7 °C 17.4 °C 1015.1 hPa SO 6.7 km/h 13 km/h 64% 0.0 mm
04:14 24.7 °C 17.2 °C 1015.1 hPa SSO 5.8 km/h 13 km/h 63.1% 0.0 mm
04:19 24.7 °C 17 °C 1015.6 hPa Sur 6.1 km/h 11.1 km/h 62.1% 0.0 mm
04:24 24.9 °C 17 °C 1015.6 hPa Sur 6.4 km/h 11.1 km/h 61.5% 0.0 mm
04:29 25.1 °C 17.2 °C 1015.6 hPa ESE 6.7 km/h 11.1 km/h 61.7% 0.0 mm
04:34 25.1 °C 17.7 °C 1015.6 hPa SE 6.9 km/h 11.1 km/h 63.7% 0.0 mm
04:39 24.8 °C 17.8 °C 1015.3 hPa ESE 6.9 km/h 9.3 km/h 65% 0.0 mm
04:44 24.6 °C 17.8 °C 1015.3 hPa Este 6.9 km/h 10 km/h 66% 0.0 mm
04:49 24.3 °C 17.8 °C 1015.3 hPa ESE 5.9 km/h 9.5 km/h 66.8% 0.0 mm
04:54 24.2 °C 17.5 °C 1015.1 hPa SSO 4.7 km/h 11.1 km/h 66% 0.0 mm
04:59 24.2 °C 17.4 °C 1015.1 hPa ONO 5.6 km/h 7.4 km/h 65.8% 0.0 mm
05:04 24.3 °C 17.6 °C 1015.1 hPa NO 6.4 km/h 7.6 km/h 66% 0.0 mm
05:09 24.3 °C 17.6 °C 1014.8 hPa NNO 4.9 km/h 7.4 km/h 66% 0.0 mm
05:14 24.3 °C 17.5 °C 1014.8 hPa NNO 3.2 km/h 5.6 km/h 66% 0.0 mm
05:19 24.2 °C 17.5 °C 1014.8 hPa ONO 3.2 km/h 9.5 km/h 66% 0.0 mm
05:24 24.2 °C 17.4 °C 1014.7 hPa SO 3.2 km/h 9.5 km/h 66% 0.0 mm
05:29 24.1 °C 17.2 °C 1014.7 hPa SO 4.7 km/h 13 km/h 65.6% 0.0 mm
05:34 24.2 °C 16.6 °C 1015.1 hPa SSO 6.4 km/h 16.4 km/h 62.6% 0.0 mm
05:39 24.5 °C 16.1 °C 1015.1 hPa SSO 8.2 km/h 16.7 km/h 59.8% 0.0 mm
05:44 24.6 °C 16 °C 1015.1 hPa SSO 10 km/h 14.8 km/h 58.7% 0.0 mm
05:49 24.6 °C 15.9 °C 1015.1 hPa Sur 10 km/h 14.8 km/h 58.3% 0.0 mm
05:54 24.5 °C 15.8 °C 1015.1 hPa SSO 10 km/h 14.8 km/h 58.2% 0.0 mm
05:59 24.4 °C 15.6 °C 1015.1 hPa SSE 8.2 km/h 9.3 km/h 58% 0.0 mm
06:04 24.4 °C 15.6 °C 1015.1 hPa SSO 6.4 km/h 7.6 km/h 58% 0.0 mm
06:09 24.3 °C 15.6 °C 1014.7 hPa SSO 5.7 km/h 11.1 km/h 58% 0.0 mm
06:14 24.3 °C 15.4 °C 1014.7 hPa Sur 5 km/h 11.1 km/h 57.7% 0.0 mm
06:19 24.3 °C 15.2 °C 1014.8 hPa Sur 6.2 km/h 13 km/h 57% 0.0 mm
06:24 24.3 °C 15 °C 1014.8 hPa Sur 7.6 km/h 19 km/h 56.3% 0.0 mm
06:29 24.3 °C 14.8 °C 1014.8 hPa Sur 9 km/h 19 km/h 55.5% 0.0 mm
06:34 24.3 °C 14.6 °C 1014.8 hPa Sur 10.3 km/h 18.5 km/h 54.8% 0.0 mm
06:39 24.4 °C 14.5 °C 1014.7 hPa SO 10.1 km/h 13 km/h 54% 0.0 mm
06:44 24.4 °C 14.4 °C 1014.7 hPa SSO 10 km/h 18 km/h 53.6% 0.0 mm
06:49 24.4 °C 14.2 °C 1015.6 hPa SSO 10 km/h 20.4 km/h 52.7% 0.0 mm
06:54 24.6 °C 13.9 °C 1015.6 hPa SO 10 km/h 20.4 km/h 51.4% 0.0 mm
06:59 24.6 °C 13.8 °C 1015.6 hPa SO 10 km/h 16.1 km/h 51% 0.0 mm
07:04 24.6 °C 13.7 °C 1015.6 hPa SO 10 km/h 18.5 km/h 50.8% 0.0 mm
07:09 24.6 °C 13.5 °C 1015.4 hPa SO 9.4 km/h 13 km/h 50% 0.0 mm
07:14 24.6 °C 13.6 °C 1015.4 hPa ONO 8.7 km/h 9.3 km/h 50.3% 0.0 mm
07:19 24.5 °C 13.7 °C 1015.4 hPa ONO 6.8 km/h 7.4 km/h 51% 0.0 mm
07:24 24.3 °C 13.5 °C 1015.2 hPa North 4.7 km/h 13 km/h 51% 0.0 mm
07:29 24.1 °C 13.6 °C 1015.2 hPa OSO 5.2 km/h 16.4 km/h 52% 0.0 mm
07:34 23.9 °C 13.5 °C 1015.6 hPa SSO 5.8 km/h 16.7 km/h 52% 0.0 mm
07:39 24 °C 13.5 °C 1015.6 hPa SO 7.5 km/h 12.2 km/h 51.9% 0.0 mm
07:44 24.2 °C 13.4 °C 1015.6 hPa SO 9.5 km/h 13 km/h 51% 0.0 mm
07:49 24.3 °C 13.5 °C 1015.6 hPa Sur 8.1 km/h 7.6 km/h 51% 0.0 mm
07:54 24.4 °C 13.6 °C 1015.6 hPa Sur 6.4 km/h 7.6 km/h 51% 0.0 mm
07:59 24.6 °C 13.8 °C 1015.6 hPa SSO 5.1 km/h 5 km/h 51% 0.0 mm
08:04 24.6 °C 13.7 °C 1015.7 hPa Oeste 3.9 km/h 7.4 km/h 50.7% 0.0 mm
08:09 24.6 °C 13.7 °C 1015.7 hPa Oeste 3.9 km/h 7.4 km/h 50.6% 0.0 mm
08:14 24.6 °C 13.6 °C 1015.7 hPa ONO 3.9 km/h 11.1 km/h 50.3% 0.0 mm
08:19 24.5 °C 13.4 °C 1015.7 hPa OSO 4.8 km/h 11.1 km/h 50% 0.0 mm
08:24 24.4 °C 13.5 °C 1015.7 hPa SO 5.8 km/h 9.3 km/h 50.6% 0.0 mm
08:29 24.4 °C 13.3 °C 1015.7 hPa SSO 5.8 km/h 7.4 km/h 50% 0.0 mm
08:34 24.4 °C 13.2 °C 1015.7 hPa SSE 5.8 km/h 7.4 km/h 49.8% 0.0 mm
08:39 24.6 °C 13.4 °C 1015.5 hPa SSE 5.2 km/h 12.2 km/h 49.8% 0.0 mm
08:44 24.5 °C 14.5 °C 1015.5 hPa SSE 4.7 km/h 16.7 km/h 53.7% 0.0 mm
08:49 24.1 °C 15.1 °C 1015.8 hPa SSE 7.4 km/h 17.2 km/h 57% 0.0 mm
08:54 23.9 °C 15 °C 1015.8 hPa SSE 10.3 km/h 16.7 km/h 57.5% 0.0 mm
08:59 24.1 °C 14.8 °C 1015.8 hPa SSO 9.3 km/h 14.8 km/h 56.2% 0.0 mm
09:04 24.3 °C 14.5 °C 1015.8 hPa SO 8.4 km/h 9.3 km/h 54.3% 0.0 mm
09:09 24.7 °C 14.1 °C 1015.8 hPa SSO 6.7 km/h 9.5 km/h 51.8% 0.0 mm
09:14 25.1 °C 14.3 °C 1015.8 hPa Sur 5 km/h 9.3 km/h 50.9% 0.0 mm
09:19 25.4 °C 14 °C 1015.8 hPa SO 4.8 km/h 11.9 km/h 49.2% 0.0 mm
09:24 25.8 °C 13.3 °C 1015.8 hPa OSO 4.7 km/h 11.1 km/h 46.2% 0.0 mm
09:29 26.1 °C 13.3 °C 1015.8 hPa SO 5.2 km/h 9.5 km/h 45.3% 0.0 mm
09:34 26.2 °C 13.2 °C 1015.8 hPa SO 5.8 km/h 10 km/h 44.7% 0.0 mm
09:39 26.3 °C 13.4 °C 1015.7 hPa OSO 5.8 km/h 7.6 km/h 45% 0.0 mm
09:44 26.4 °C 13.5 °C 1015.7 hPa SSO 5.8 km/h 11.1 km/h 45% 0.0 mm
09:49 26.4 °C 13.7 °C 1015.9 hPa Sur 6.1 km/h 15.6 km/h 45.5% 0.0 mm
09:54 26.3 °C 13.8 °C 1015.9 hPa SSO 6.4 km/h 16.4 km/h 46% 0.0 mm
09:59 26.3 °C 14 °C 1015.9 hPa Sur 8.8 km/h 17.2 km/h 46.8% 0.0 mm
10:04 26.3 °C 13.9 °C 1016.1 hPa SSO 11.1 km/h 16.1 km/h 46.5% 0.0 mm
10:09 26.3 °C 13.8 °C 1016.1 hPa SSO 10.7 km/h 17.2 km/h 46.1% 0.0 mm
10:14 26.3 °C 13.8 °C 1016.1 hPa SSO 10.3 km/h 20.4 km/h 46% 0.0 mm
10:19 26.5 °C 13.9 °C 1016.1 hPa SSO 9.9 km/h 11.1 km/h 45.9% 0.0 mm
10:24 26.8 °C 13.9 °C 1015.8 hPa SSO 9.5 km/h 14 km/h 45% 0.0 mm
10:29 26.9 °C 13.7 °C 1015.8 hPa SSO 9 km/h 14.8 km/h 44% 0.0 mm
10:34 27.2 °C 13.7 °C 1015.8 hPa SSE 8.4 km/h 11.9 km/h 43.4% 0.0 mm
10:39 27.3 °C 13.7 °C 1015.7 hPa Sur 7.7 km/h 9.3 km/h 43.1% 0.0 mm
10:44 27.5 °C 13.4 °C 1015.7 hPa Sur 6.9 km/h 11.9 km/h 41.9% 0.0 mm
10:49 27.7 °C 13.5 °C 1015.8 hPa SSO 6.7 km/h 11.1 km/h 41.5% 0.0 mm
10:54 28 °C 13.7 °C 1015.8 hPa OSO 6.4 km/h 5.8 km/h 41.7% 0.0 mm
10:59 28.4 °C 13.9 °C 1015.8 hPa SO 4.7 km/h 8.4 km/h 41% 0.0 mm
11:04 28.8 °C 14.2 °C 1015.8 hPa OSO 2.9 km/h 7.6 km/h 41% 0.0 mm
11:09 28.9 °C 14.4 °C 1015.6 hPa Sur 3.4 km/h 7.6 km/h 41% 0.0 mm
11:14 29.2 °C 14.2 °C 1015.6 hPa SO 3.9 km/h 7.6 km/h 40% 0.0 mm
11:19 29.4 °C 14 °C 1015.8 hPa SSO 4.3 km/h 7.4 km/h 39.1% 0.0 mm
11:24 29.7 °C 14.2 °C 1015.8 hPa SSE 4.7 km/h 9.3 km/h 39% 0.0 mm
11:29 30.1 °C 14 °C 1015.8 hPa ENE 4.4 km/h 11.9 km/h 37.6% 0.0 mm
11:34 30.3 °C 14 °C 1015.8 hPa NE 3.9 km/h 13 km/h 37.1% 0.0 mm
11:39 30.3 °C 14 °C 1015.4 hPa NE 6.1 km/h 17.2 km/h 37% 0.0 mm
11:44 30.4 °C 14.1 °C 1015.4 hPa NNE 8.4 km/h 25.9 km/h 37.2% 0.0 mm
11:49 30.3 °C 14.1 °C 1015.4 hPa NNE 11 km/h 22.2 km/h 37.4% 0.0 mm
11:54 30.2 °C 14.3 °C 1015.4 hPa NE 14 km/h 18.5 km/h 38% 0.0 mm
11:59 30.3 °C 14.2 °C 1015.4 hPa NNE 12.7 km/h 16.7 km/h 37.5% 0.0 mm
12:04 30.4 °C 14.4 °C 1015.8 hPa NE 10.3 km/h 16.7 km/h 37.8% 0.0 mm
12:09 30.6 °C 14.5 °C 1015.8 hPa NE 9.9 km/h 20.9 km/h 37.6% 0.0 mm
12:14 30.7 °C 14.4 °C 1015.8 hPa NE 9.5 km/h 28.6 km/h 37.1% 0.0 mm
12:19 30.7 °C 14.7 °C 1016.0 hPa NE 10.7 km/h 29.6 km/h 37.8% 0.0 mm
12:24 30.7 °C 14.8 °C 1016.0 hPa NNE 11.9 km/h 23.7 km/h 38% 0.0 mm
12:29 30.6 °C 14.9 °C 1016.0 hPa NNE 12.7 km/h 24.1 km/h 38.6% 0.0 mm
12:34 30.8 °C 15.2 °C 1016.0 hPa NNE 13.7 km/h 24.5 km/h 38.9% 0.0 mm
12:39 30.9 °C 15 °C 1015.8 hPa NE 13.8 km/h 29.8 km/h 38.1% 0.0 mm
12:44 30.9 °C 15.1 °C 1015.8 hPa NNE 14 km/h 31.7 km/h 38.4% 0.0 mm
12:49 30.8 °C 15.1 °C 1015.8 hPa NE 15 km/h 24.5 km/h 38.6% 0.0 mm
12:54 30.8 °C 15.4 °C 1015.8 hPa NE 16.1 km/h 33.3 km/h 39.4% 0.0 mm
12:59 30.6 °C 15.8 °C 1015.8 hPa NE 16.5 km/h 29.8 km/h 40.9% 0.0 mm
13:04 30.4 °C 15.5 °C 1015.8 hPa NNE 17.2 km/h 31.5 km/h 40.6% 0.0 mm
13:09 30.4 °C 15 °C 1015.3 hPa NE 17.2 km/h 29.6 km/h 39.3% 0.0 mm
13:14 30.4 °C 14.2 °C 1015.3 hPa NE 17.2 km/h 26.2 km/h 37.3% 0.0 mm
13:19 30.6 °C 13.8 °C 1015.4 hPa NE 16.8 km/h 31.7 km/h 36% 0.0 mm
13:24 30.7 °C 13.9 °C 1015.4 hPa NE 16.4 km/h 29.8 km/h 36.2% 0.0 mm
13:29 30.7 °C 14.3 °C 1015.4 hPa NE 16.8 km/h 29.6 km/h 36.8% 0.0 mm
13:34 30.7 °C 14.9 °C 1015.4 hPa NE 17.2 km/h 33.3 km/h 38.3% 0.0 mm
13:39 30.4 °C 15.6 °C 1014.8 hPa ENE 16.8 km/h 34.3 km/h 40.8% 0.0 mm
13:44 30.3 °C 16.1 °C 1014.8 hPa ENE 16.4 km/h 35.9 km/h 42.4% 0.0 mm
13:49 30.3 °C 17 °C 1014.8 hPa NE 16.3 km/h 35.2 km/h 45% 0.0 mm
13:54 30.1 °C 18 °C 1014.3 hPa NE 16.1 km/h 35.2 km/h 48.5% 0.0 mm
13:59 29.9 °C 18.1 °C 1014.3 hPa NE 18 km/h 34.3 km/h 49.2% 0.0 mm
14:04 29.8 °C 18.7 °C 1014.3 hPa NE 19.8 km/h 40.7 km/h 51.3% 0.0 mm
14:09 29.8 °C 18.9 °C 1014.3 hPa NE 20.9 km/h 30.6 km/h 52% 0.0 mm
14:14 29.9 °C 19.2 °C 1014.3 hPa NE 22.5 km/h 35.9 km/h 52.9% 0.0 mm
14:19 29.9 °C 19.1 °C 1014.8 hPa NE 19.9 km/h 35.9 km/h 52.2% 0.0 mm
14:24 30 °C 18.8 °C 1014.8 hPa ENE 17.2 km/h 27.8 km/h 51.1% 0.0 mm
14:29 30.2 °C 18 °C 1014.8 hPa NE 17.2 km/h 29.6 km/h 48% 0.0 mm
14:34 30.2 °C 18.1 °C 1015.1 hPa ENE 17.2 km/h 27.8 km/h 48.4% 0.0 mm
14:39 30.3 °C 17.7 °C 1015.1 hPa ENE 16.6 km/h 25.9 km/h 46.9% 0.0 mm
14:44 30.3 °C 17.5 °C 1015.1 hPa NE 14.8 km/h 28.2 km/h 46.1% 0.0 mm
14:49 30.3 °C 17.6 °C 1015.2 hPa NE 15.5 km/h 24.5 km/h 46.6% 0.0 mm
14:54 30.5 °C 18.6 °C 1015.2 hPa NE 16.1 km/h 18.5 km/h 49.1% 0.0 mm
14:59 30.5 °C 18.4 °C 1015.2 hPa ENE 14.5 km/h 27.8 km/h 48.6% 0.0 mm
15:04 30.3 °C 18.5 °C 1015.2 hPa NE 13 km/h 25.9 km/h 49.5% 0.0 mm
15:09 30.4 °C 18.8 °C 1015.0 hPa Este 13 km/h 27.4 km/h 50% 0.0 mm
15:14 30.6 °C 19.3 °C 1015.0 hPa Este 13 km/h 27.8 km/h 51% 0.0 mm
15:19 30.6 °C 19.1 °C 1015.0 hPa ENE 14.3 km/h 27.8 km/h 50.3% 0.0 mm
15:24 30.4 °C 19.1 °C 1014.9 hPa Este 15.6 km/h 24.5 km/h 50.7% 0.0 mm
15:29 30.3 °C 19.4 °C 1014.9 hPa Este 14.9 km/h 25.9 km/h 52.1% 0.0 mm
15:34 30.3 °C 19.1 °C 1014.9 hPa ENE 14 km/h 27.4 km/h 51.2% 0.0 mm
15:39 30.3 °C 19.5 °C 1014.7 hPa ENE 13.8 km/h 27.8 km/h 52.4% 0.0 mm
15:44 30.2 °C 20 °C 1014.7 hPa NE 13.7 km/h 26.2 km/h 54.5% 0.0 mm
15:49 30 °C 20 °C 1014.7 hPa NE 14.6 km/h 23.7 km/h 55.2% 0.0 mm
15:54 30.1 °C 19.8 °C 1014.3 hPa NE 15.6 km/h 27.8 km/h 54% 0.0 mm
15:59 30.3 °C 20 °C 1014.3 hPa NE 14.8 km/h 25.1 km/h 54.2% 0.0 mm
16:04 30.1 °C 20.1 °C 1014.3 hPa NE 14 km/h 33.3 km/h 55% 0.0 mm
16:09 30 °C 20 °C 1014.3 hPa NE 15.2 km/h 29.6 km/h 55.2% 0.0 mm
16:14 30.1 °C 20 °C 1014.3 hPa ENE 16.4 km/h 29.6 km/h 54.8% 0.0 mm
16:19 30 °C 19.6 °C 1014.3 hPa NE 17.3 km/h 34.6 km/h 53.7% 0.0 mm
16:24 29.8 °C 19.9 °C 1013.9 hPa ENE 18.3 km/h 35.2 km/h 55.5% 0.0 mm
16:29 29.7 °C 19.9 °C 1013.9 hPa NE 18.6 km/h 37 km/h 56% 0.0 mm
16:34 29.3 °C 19.5 °C 1014.0 hPa NE 19 km/h 31.7 km/h 55.6% 0.0 mm
16:39 29.2 °C 20 °C 1014.0 hPa NE 18.5 km/h 22.2 km/h 57.5% 0.0 mm
16:44 29.3 °C 20.5 °C 1014.0 hPa NE 18 km/h 19 km/h 59.1% 0.0 mm
16:49 29.3 °C 20.8 °C 1014.3 hPa NNE 14.5 km/h 24.5 km/h 60% 0.0 mm
16:54 29.3 °C 20.7 °C 1014.3 hPa NE 10.3 km/h 28.6 km/h 59.8% 0.0 mm
16:59 29.3 °C 20.6 °C 1014.3 hPa NE 13.2 km/h 29.6 km/h 59.3% 0.0 mm
17:04 29.2 °C 20.9 °C 1014.3 hPa NNE 16.1 km/h 28.2 km/h 61.3% 0.0 mm
17:09 29.1 °C 21 °C 1013.8 hPa NE 17.1 km/h 34.6 km/h 61.7% 0.0 mm
17:14 28.8 °C 20.4 °C 1013.8 hPa NE 18 km/h 35.2 km/h 60.5% 0.0 mm
17:19 28.6 °C 20.2 °C 1013.8 hPa NE 19.1 km/h 27.8 km/h 60.5% 0.0 mm
17:24 28.6 °C 20.3 °C 1013.5 hPa NE 20.1 km/h 26.2 km/h 60.9% 0.0 mm
17:29 28.5 °C 20.4 °C 1013.5 hPa ENE 17.9 km/h 33.3 km/h 61.6% 0.0 mm
17:34 28.7 °C 20.7 °C 1013.5 hPa ENE 15.6 km/h 27.8 km/h 62% 0.0 mm
17:39 28.8 °C 20.7 °C 1013.0 hPa NE 14.7 km/h 37 km/h 61.4% 0.0 mm
17:44 28.8 °C 20.3 °C 1013.0 hPa NE 13.7 km/h 28.2 km/h 60.4% 0.0 mm
17:49 28.6 °C 20 °C 1013.9 hPa NE 15 km/h 27.8 km/h 60% 0.0 mm
17:54 28.5 °C 19.8 °C 1013.9 hPa NE 16.4 km/h 26.2 km/h 59.2% 0.0 mm
17:59 28.5 °C 19.9 °C 1013.9 hPa NE 15.2 km/h 25.9 km/h 59.7% 0.0 mm
18:04 28.5 °C 19.7 °C 1013.9 hPa ENE 14 km/h 24.1 km/h 59% 0.0 mm
18:09 28.4 °C 19.7 °C 1013.7 hPa ENE 13.2 km/h 25.9 km/h 59.5% 0.0 mm
18:14 28.3 °C 19.9 °C 1013.7 hPa ENE 12.2 km/h 24.1 km/h 60.6% 0.0 mm
18:19 28.3 °C 20.1 °C 1013.7 hPa ENE 12.1 km/h 18.5 km/h 61% 0.0 mm
18:24 28.3 °C 20 °C 1013.5 hPa NE 11.9 km/h 22.2 km/h 61% 0.0 mm
18:29 28.2 °C 19.8 °C 1013.5 hPa NE 12.4 km/h 26.2 km/h 60.4% 0.0 mm
18:34 28.2 °C 19.8 °C 1013.5 hPa NE 13 km/h 24.5 km/h 60.5% 0.0 mm
18:39 28.1 °C 19.9 °C 1013.2 hPa NE 13.4 km/h 22.5 km/h 61% 0.0 mm
18:44 28.1 °C 19.9 °C 1013.2 hPa ENE 13.7 km/h 13 km/h 61% 0.0 mm
18:49 28.2 °C 19.9 °C 1014.4 hPa ESE 10.3 km/h 11.9 km/h 61% 0.0 mm
18:54 28.2 °C 20.2 °C 1014.4 hPa NE 6.4 km/h 13 km/h 61.9% 0.0 mm
18:59 28.1 °C 20.2 °C 1014.4 hPa NE 6.7 km/h 11.1 km/h 62.3% 0.0 mm
19:04 28.1 °C 20.1 °C 1014.4 hPa NE 6.9 km/h 27 km/h 62% 0.0 mm
19:09 27.9 °C 19.8 °C 1013.4 hPa NE 8.9 km/h 29.6 km/h 61.3% 0.0 mm
19:14 27.9 °C 19.7 °C 1013.4 hPa NE 11.1 km/h 22.2 km/h 61.2% 0.0 mm
19:19 27.9 °C 19.9 °C 1013.6 hPa Este 11.7 km/h 19 km/h 62% 0.0 mm
19:24 27.9 °C 19.7 °C 1013.6 hPa Este 12.2 km/h 23.3 km/h 61.2% 0.0 mm
19:29 27.9 °C 19.7 °C 1013.6 hPa NE 12.1 km/h 24.5 km/h 61% 0.0 mm
19:34 27.8 °C 19.7 °C 1013.6 hPa NE 11.9 km/h 29.6 km/h 61.3% 0.0 mm
19:39 27.7 °C 19.8 °C 1013.0 hPa NE 14.8 km/h 22.2 km/h 62% 0.0 mm
19:44 27.7 °C 19.8 °C 1013.0 hPa NE 14.8 km/h 33.5 km/h 62.1% 0.0 mm
19:49 27.6 °C 19.7 °C 1013.0 hPa NE 16.4 km/h 33.3 km/h 62.1% 0.0 mm
19:54 27.4 °C 19.7 °C 1011.9 hPa ENE 18 km/h 29.6 km/h 63% 0.0 mm
19:59 27.4 °C 19.7 °C 1011.9 hPa Este 15.8 km/h 25.9 km/h 63% 0.0 mm
20:04 27.3 °C 19.8 °C 1012.0 hPa Este 13.7 km/h 29.6 km/h 63.5% 0.0 mm
20:09 27.3 °C 19.8 °C 1012.0 hPa ENE 14.9 km/h 27.8 km/h 64% 0.0 mm
20:14 27.2 °C 19.8 °C 1012.0 hPa NE 16.1 km/h 31.7 km/h 64.2% 0.0 mm
20:19 27.1 °C 20 °C 1012.0 hPa NNE 16.2 km/h 31.5 km/h 65.3% 0.0 mm
20:24 26.9 °C 20.3 °C 1011.8 hPa NNE 16.4 km/h 29.8 km/h 66.9% 0.0 mm
20:29 26.9 °C 20.5 °C 1011.8 hPa Este 15.6 km/h 18.5 km/h 68% 0.0 mm
20:39 26.8 °C 20.6 °C 1012.6 hPa NE 14.4 km/h 29.6 km/h 68.8% 0.0 mm
20:44 26.8 °C 20.7 °C 1012.6 hPa NE 14 km/h 19.8 km/h 69.2% 0.0 mm
20:49 26.8 °C 20.9 °C 1012.8 hPa NE 12.9 km/h 20.9 km/h 70.4% 0.0 mm
20:54 26.7 °C 21 °C 1012.8 hPa NE 11.9 km/h 20.9 km/h 71% 0.0 mm
20:59 26.6 °C 21.1 °C 1012.8 hPa NE 12.1 km/h 17.2 km/h 72% 0.0 mm
21:04 26.6 °C 21.1 °C 1013.1 hPa NE 12.2 km/h 16.7 km/h 72% 0.0 mm
21:09 26.6 °C 21.1 °C 1013.1 hPa ENE 10.4 km/h 13.7 km/h 72% 0.0 mm
21:14 26.6 °C 21.1 °C 1013.1 hPa ENE 8.4 km/h 14.8 km/h 72% 0.0 mm
21:19 26.6 °C 21.1 °C 1013.1 hPa ENE 8.4 km/h 15.6 km/h 72% 0.0 mm
21:24 26.4 °C 21.2 °C 1013.1 hPa NE 8.4 km/h 19 km/h 72.8% 0.0 mm
21:29 26.4 °C 21.2 °C 1013.1 hPa NE 9.3 km/h 18.5 km/h 73% 0.0 mm
21:34 26.4 °C 21.2 °C 1013.3 hPa North 10.3 km/h 13 km/h 73% 0.0 mm
21:39 26.3 °C 21.1 °C 1013.3 hPa ENE 8.6 km/h 11.1 km/h 73% 0.0 mm
21:44 26.3 °C 21.2 °C 1013.3 hPa ENE 6.9 km/h 11.9 km/h 73.8% 0.0 mm
21:49 26.3 °C 21.3 °C 1013.3 hPa ENE 7.2 km/h 18.5 km/h 74% 0.0 mm
21:54 26.3 °C 21.3 °C 1012.9 hPa NE 7.6 km/h 13.7 km/h 74% 0.0 mm
21:59 26.3 °C 21.3 °C 1012.9 hPa NO 7 km/h 7.6 km/h 74% 0.0 mm
22:04 26.3 °C 21.3 °C 1013.3 hPa NE 6.4 km/h 12.2 km/h 74% 0.0 mm
22:09 26.3 °C 21.4 °C 1013.3 hPa NE 6.4 km/h 14.8 km/h 74.7% 0.0 mm
22:14 26.2 °C 21.4 °C 1013.3 hPa North 6.4 km/h 11.1 km/h 75% 0.0 mm
22:19 26.2 °C 21.4 °C 1013.5 hPa NNE 6.7 km/h 11.9 km/h 75% 0.0 mm
22:24 26.1 °C 21.3 °C 1013.5 hPa NE 6.9 km/h 11.9 km/h 75% 0.0 mm
22:29 26.1 °C 21.3 °C 1013.5 hPa NE 6.7 km/h 7.4 km/h 75% 0.0 mm
22:34 26.1 °C 21.3 °C 1013.6 hPa NNE 6.4 km/h 9.3 km/h 75% 0.0 mm
22:39 26.1 °C 21.3 °C 1013.6 hPa NNE 5.8 km/h 13 km/h 75% 0.0 mm
22:44 26.1 °C 21.4 °C 1013.6 hPa NE 5 km/h 13 km/h 75.6% 0.0 mm
22:49 26 °C 21.4 °C 1013.6 hPa NNE 6.8 km/h 18.5 km/h 76% 0.0 mm
22:59 25.9 °C 21.5 °C 1013.1 hPa NE 8.5 km/h 11.1 km/h 76.9% 0.0 mm
23:04 26 °C 21.5 °C 1014.0 hPa OSO 8.4 km/h 9.3 km/h 76.2% 0.0 mm
23:09 26.1 °C 21.5 °C 1014.0 hPa NNE 7.1 km/h 11.1 km/h 76% 0.0 mm
23:14 26.1 °C 21.6 °C 1014.0 hPa NE 5.8 km/h 8.4 km/h 76% 0.0 mm
23:19 26.1 °C 21.6 °C 1014.1 hPa NE 5.4 km/h 10 km/h 76% 0.0 mm
23:24 26 °C 21.4 °C 1014.1 hPa ENE 5 km/h 10.3 km/h 76% 0.0 mm
23:29 26 °C 21.5 °C 1014.1 hPa ENE 5.4 km/h 11.1 km/h 76.3% 0.0 mm
23:34 25.9 °C 21.6 °C 1014.1 hPa ENE 5.8 km/h 8.4 km/h 77% 0.0 mm
23:39 25.9 °C 21.5 °C 1013.9 hPa NE 5.8 km/h 10 km/h 77% 0.0 mm
23:44 25.8 °C 21.4 °C 1013.9 hPa NE 5.8 km/h 13 km/h 77% 0.0 mm
23:49 25.7 °C 21.4 °C 1013.9 hPa NNE 6.7 km/h 13 km/h 77% 0.0 mm
23:54 25.6 °C 21.5 °C 1013.5 hPa NE 7.6 km/h 11.1 km/h 78% 0.0 mm
23:59 25.6 °C 21.5 °C 1013.5 hPa NNO 7.2 km/h 9.5 km/h 78% 0.0 mm
Murcia-Puente Tocinos, Espa?a
Compliments of Weather Underground - 3 mb

La estación de MeteoMurcia.com, publica sus datos en los siguientes proyectos:

Weather Underground PWS IMURCIAP2 Meteoclimatic www.awekas.at

W3Counter
Web Analytics